Frontier Kotobuki — 3EXC5 — position and weather

sailwx.info

Track history (hours):
 
Tides and Currents Weather Stations Pressure Air Temp Water Temp Dewpoint Dewpoint Depression Visibility Wind Speed Wind Dir Waves Ship Positions

Frontier Kotobuki

Last reported at 2016-Feb-06 06:33 UTC. Time now 2016-Feb-14 14:41 UTC.
Position S 34°34' E 018°36'.
Warning: this ship's position is 8 days out of date.

Length 290 m; draft 18.2 m.

Type: Cargo ship. MMSI: 355036000.

Date/timePositionNaut miles runAvg speedWind from/ knotsBaromVisibWave heightAir tempDewpointWater temp
2016-Feb-06 06:33S 34°34' E 018°36'1111.1
2016-Feb-06 05:33S 34°29' E 018°24'1110.7
2016-Feb-06 04:33S 34°24' E 018°12'11 9.9
2016-Feb-06 03:26S 34°14' E 018°06'1011.5
2016-Feb-06 02:33S 34°04' E 018°04'1211.8
2016-Feb-06 01:33S 33°53' E 018°01'1212.1
2016-Feb-06 00:33S 33°41' E 017°57'1211.8
2016-Feb-05 23:33S 33°30' E 017°54'1211.5
2016-Feb-05 22:33S 33°19' E 017°50'1010.5
2016-Feb-05 21:33S 33°08' E 017°49'10 9.8
2016-Feb-05 20:33S 33°03' E 017°59'1 0.4
2016-Feb-05 17:16S 33°02' E 017°59'0 0.0
2016-Feb-04 20:10S 33°02' E 017°59'16 0.5
2016-Feb-03 09:16S 33°17' E 017°52'7 9.8
2016-Feb-03 08:32S 33°24' E 017°55'6 6.2
2016-Feb-03 07:33S 33°30' E 017°57'1313.3
2016-Feb-03 06:33S 33°43' E 017°60'1313.3
2016-Feb-03 05:33S 33°56' E 018°03'  
Track history (hours):
 
Tides and Currents Weather Stations Pressure Air Temp Water Temp Dewpoint Dewpoint Depression Visibility Wind Speed Wind Dir Waves Ship Positions

Frontier Kotobuki

Last reported at 2016-Feb-06 06:33 UTC. Time now 2016-Feb-14 14:41 UTC.
Position S 34°34' E 018°36'.
Warning: this ship's position is 8 days out of date.

Length 290 m; draft 18.2 m.

Type: Cargo ship. MMSI: 355036000.

Date/timePositionNaut miles runAvg speedWind from/ knotsBaromVisibWave heightAir tempDewpointWater temp
2016-Feb-06 06:33S 34°34' E 018°36'1111.1
2016-Feb-06 05:33S 34°29' E 018°24'1110.7
2016-Feb-06 04:33S 34°24' E 018°12'11 9.9
2016-Feb-06 03:26S 34°14' E 018°06'1011.5
2016-Feb-06 02:33S 34°04' E 018°04'1211.8
2016-Feb-06 01:33S 33°53' E 018°01'1212.1
2016-Feb-06 00:33S 33°41' E 017°57'1211.8
2016-Feb-05 23:33S 33°30' E 017°54'1211.5
2016-Feb-05 22:33S 33°19' E 017°50'1010.5
2016-Feb-05 21:33S 33°08' E 017°49'10 9.8
2016-Feb-05 20:33S 33°03' E 017°59'1 0.4
2016-Feb-05 17:16S 33°02' E 017°59'0 0.0
2016-Feb-04 20:10S 33°02' E 017°59'16 0.5
2016-Feb-03 09:16S 33°17' E 017°52'7 9.8
2016-Feb-03 08:32S 33°24' E 017°55'6 6.2
2016-Feb-03 07:33S 33°30' E 017°57'1313.3
2016-Feb-03 06:33S 33°43' E 017°60'1313.3
2016-Feb-03 05:33S 33°56' E 018°03'  

Dump ship's entire track history